Wetterdaten: Dienstag, 01.06.2010
Datum Zeit Temp. A. Feuchte A. Luftdruck Regen Wind Richtung Richtung Sonnenschein UV Solar Windben
01.06.2010 00:00 10,9 C 93 % 1015,1 hPa 0,0 mm 0,0 km/h (0 Bft) W-NW 292 0 min 0 UV-I 0 W/m 1,6 km/h (1 Bft)
01.06.2010 00:10 10,8 C 93 % 1015,1 hPa 0,0 mm 0,0 km/h (0 Bft) W-NW 292 0 min 0 UV-I 0 W/m 1,6 km/h (1 Bft)
01.06.2010 00:20 10,6 C 93 % 1015,1 hPa 0,0 mm 0,0 km/h (0 Bft) N 0 0 min 0 UV-I 0 W/m 0,0 km/h (0 Bft)
01.06.2010 00:30 10,4 C 93 % 1015,0 hPa 0,0 mm 0,0 km/h (0 Bft) W-NW 292 0 min 0 UV-I 0 W/m 1,6 km/h (1 Bft)
01.06.2010 00:40 10,4 C 94 % 1015,0 hPa 0,0 mm 0,0 km/h (0 Bft) W-NW 292 0 min 0 UV-I 0 W/m 1,6 km/h (1 Bft)
01.06.2010 00:50 10,5 C 94 % 1015,0 hPa 0,0 mm 0,0 km/h (0 Bft) W 270 0 min 0 UV-I 0 W/m 6,4 km/h (2 Bft)
01.06.2010 01:00 10,5 C 94 % 1015,0 hPa 0,0 mm 0,0 km/h (0 Bft) W 270 0 min 0 UV-I 0 W/m 4,8 km/h (1 Bft)
01.06.2010 01:10 10,4 C 94 % 1015,1 hPa 0,0 mm 1,6 km/h (1 Bft) W 270 0 min 0 UV-I 0 W/m 8,0 km/h (2 Bft)
01.06.2010 01:20 10,4 C 94 % 1015,1 hPa 0,0 mm 1,6 km/h (1 Bft) W 270 0 min 0 UV-I 0 W/m 8,0 km/h (2 Bft)
01.06.2010 01:30 10,6 C 94 % 1015,0 hPa 0,0 mm 1,6 km/h (1 Bft) W-SW 247 0 min 0 UV-I 0 W/m 6,4 km/h (2 Bft)
01.06.2010 01:40 10,7 C 94 % 1015,0 hPa 0,0 mm 1,6 km/h (1 Bft) W-SW 247 0 min 0 UV-I 0 W/m 6,4 km/h (2 Bft)
01.06.2010 01:50 10,8 C 94 % 1015,1 hPa 0,0 mm 1,6 km/h (1 Bft) W-SW 247 0 min 0 UV-I 0 W/m 6,4 km/h (2 Bft)
01.06.2010 02:00 10,8 C 94 % 1015,0 hPa 0,0 mm 3,2 km/h (1 Bft) W-SW 247 0 min 0 UV-I 0 W/m 9,7 km/h (2 Bft)
01.06.2010 02:10 10,9 C 94 % 1015,0 hPa 0,0 mm 1,6 km/h (1 Bft) W-SW 247 0 min 0 UV-I 0 W/m 9,7 km/h (2 Bft)
01.06.2010 02:20 10,9 C 94 % 1015,0 hPa 0,0 mm 0,0 km/h (0 Bft) W 270 0 min 0 UV-I 0 W/m 3,2 km/h (1 Bft)
01.06.2010 02:30 11,0 C 94 % 1014,9 hPa 0,0 mm 3,2 km/h (1 Bft) W 270 0 min 0 UV-I 0 W/m 9,7 km/h (2 Bft)
01.06.2010 02:40 11,0 C 94 % 1014,8 hPa 0,0 mm 3,2 km/h (1 Bft) W 270 0 min 0 UV-I 0 W/m 9,7 km/h (2 Bft)
01.06.2010 02:50 11,0 C 95 % 1014,8 hPa 0,0 mm 1,6 km/h (1 Bft) W 270 0 min 0 UV-I 0 W/m 6,4 km/h (2 Bft)
01.06.2010 03:00 11,0 C 95 % 1014,8 hPa 0,0 mm 1,6 km/h (1 Bft) W 270 0 min 0 UV-I 0 W/m 8,0 km/h (2 Bft)
01.06.2010 03:10 10,9 C 94 % 1014,7 hPa 0,0 mm 1,6 km/h (1 Bft) W 270 0 min 0 UV-I 0 W/m 14,5 km/h (3 Bft)
01.06.2010 03:20 10,9 C 94 % 1014,6 hPa 0,0 mm 3,2 km/h (1 Bft) W-NW 292 0 min 0 UV-I 0 W/m 9,7 km/h (2 Bft)
01.06.2010 03:30 10,9 C 94 % 1014,5 hPa 0,0 mm 1,6 km/h (1 Bft) W-NW 292 0 min 0 UV-I 0 W/m 6,4 km/h (2 Bft)
01.06.2010 03:40 10,9 C 94 % 1014,5 hPa 0,0 mm 1,6 km/h (1 Bft) W-NW 292 0 min 0 UV-I 0 W/m 4,8 km/h (1 Bft)
01.06.2010 03:50 10,9 C 94 % 1014,5 hPa 0,0 mm 1,6 km/h (1 Bft) W 270 0 min 0 UV-I 0 W/m 9,7 km/h (2 Bft)
01.06.2010 04:00 10,9 C 95 % 1014,4 hPa 0,0 mm 1,6 km/h (1 Bft) W 270 0 min 0 UV-I 0 W/m 4,8 km/h (1 Bft)
01.06.2010 04:10 10,9 C 95 % 1014,5 hPa 0,0 mm 0,0 km/h (0 Bft) W-NW 292 0 min 0 UV-I 0 W/m 6,4 km/h (2 Bft)
01.06.2010 04:20 11,0 C 95 % 1014,5 hPa 0,0 mm 1,6 km/h (1 Bft) W-NW 292 0 min 0 UV-I 0 W/m 8,0 km/h (2 Bft)
01.06.2010 04:30 11,0 C 95 % 1014,5 hPa 0,0 mm 1,6 km/h (1 Bft) W 270 0 min 0 UV-I 0 W/m 9,7 km/h (2 Bft)
01.06.2010 04:40 10,9 C 95 % 1014,6 hPa 0,0 mm 3,2 km/h (1 Bft) W 270 0 min 0 UV-I 0 W/m 11,3 km/h (2 Bft)
01.06.2010 04:50 10,8 C 95 % 1014,5 hPa 0,0 mm 1,6 km/h (1 Bft) NW 315 0 min 0 UV-I 0 W/m 8,0 km/h (2 Bft)
01.06.2010 05:00 10,8 C 95 % 1014,4 hPa 0,0 mm 0,0 km/h (0 Bft) W-NW 292 0 min 0 UV-I 0 W/m 6,4 km/h (2 Bft)
01.06.2010 05:10 10,8 C 95 % 1014,4 hPa 0,0 mm 3,2 km/h (1 Bft) W-NW 292 0 min 0 UV-I 0 W/m 9,7 km/h (2 Bft)
01.06.2010 05:20 10,7 C 95 % 1014,6 hPa 0,0 mm 1,6 km/h (1 Bft) W 270 0 min 0 UV-I 0 W/m 9,7 km/h (2 Bft)
01.06.2010 05:30 10,6 C 95 % 1014,6 hPa 0,0 mm 3,2 km/h (1 Bft) W 270 0 min 0 UV-I 0 W/m 8,0 km/h (2 Bft)
01.06.2010 05:40 10,5 C 95 % 1014,7 hPa 0,0 mm 3,2 km/h (1 Bft) W-NW 292 0 min 0 UV-I 5 W/m 9,7 km/h (2 Bft)
01.06.2010 05:50 10,4 C 95 % 1014,8 hPa 0,0 mm 1,6 km/h (1 Bft) W-NW 292 0 min 0 UV-I 7 W/m 9,7 km/h (2 Bft)
01.06.2010 06:00 10,4 C 95 % 1014,8 hPa 0,0 mm 1,6 km/h (1 Bft) W-NW 292 0 min 0 UV-I 11 W/m 6,4 km/h (2 Bft)
01.06.2010 06:10 10,4 C 95 % 1014,8 hPa 0,0 mm 1,6 km/h (1 Bft) W-NW 292 0 min 0 UV-I 12 W/m 6,4 km/h (2 Bft)
01.06.2010 06:20 10,4 C 95 % 1014,9 hPa 0,0 mm 3,2 km/h (1 Bft) W 270 0 min 0 UV-I 12 W/m 9,7 km/h (2 Bft)
01.06.2010 06:30 10,4 C 95 % 1014,9 hPa 0,0 mm 1,6 km/h (1 Bft) W 270 0 min 0 UV-I 25 W/m 8,0 km/h (2 Bft)
01.06.2010 06:40 10,4 C 95 % 1015,0 hPa 0,0 mm 1,6 km/h (1 Bft) W 270 0 min 0 UV-I 25 W/m 9,7 km/h (2 Bft)
01.06.2010 06:50 10,3 C 95 % 1015,0 hPa 0,0 mm 3,2 km/h (1 Bft) W 270 0 min 0 UV-I 32 W/m 11,3 km/h (2 Bft)
01.06.2010 07:00 10,3 C 95 % 1015,0 hPa 0,0 mm 1,6 km/h (1 Bft) NW 315 0 min 0 UV-I 42 W/m 8,0 km/h (2 Bft)
01.06.2010 07:10 10,3 C 95 % 1015,2 hPa 0,0 mm 1,6 km/h (1 Bft) NW 315 0 min 0 UV-I 40 W/m 6,4 km/h (2 Bft)
01.06.2010 07:20 10,4 C 95 % 1015,2 hPa 0,0 mm 1,6 km/h (1 Bft) W-SW 247 0 min 0 UV-I 77 W/m 8,0 km/h (2 Bft)
01.06.2010 07:30 10,4 C 95 % 1015,3 hPa 0,0 mm 1,6 km/h (1 Bft) W 270 0 min 0 UV-I 76 W/m 6,4 km/h (2 Bft)
01.06.2010 07:40 10,4 C 95 % 1015,3 hPa 0,0 mm 3,2 km/h (1 Bft) W 270 0 min 1 UV-I 100 W/m 9,7 km/h (2 Bft)
01.06.2010 07:50 10,5 C 95 % 1015,2 hPa 0,0 mm 1,6 km/h (1 Bft) NW 315 0 min 1 UV-I 105 W/m 6,4 km/h (2 Bft)
01.06.2010 08:00 10,7 C 95 % 1015,3 hPa 0,0 mm 3,9 km/h (1 Bft) W 269 0 min 1 UV-I 99 W/m 8,0 km/h (2 Bft)
01.06.2010 08:10 10,7 C 94 % 1015,3 hPa 0,0 mm 3,2 km/h (1 Bft) NW 315 0 min 1 UV-I 155 W/m 9,7 km/h (2 Bft)
01.06.2010 08:20 10,7 C 94 % 1015,2 hPa 0,0 mm 1,6 km/h (1 Bft) W-NW 292 0 min 1 UV-I 156 W/m 9,7 km/h (2 Bft)
01.06.2010 08:30 10,7 C 94 % 1015,2 hPa 0,0 mm 4,8 km/h (1 Bft) W 270 0 min 1 UV-I 113 W/m 11,3 km/h (2 Bft)
01.06.2010 08:40 10,7 C 94 % 1015,1 hPa 0,0 mm 3,2 km/h (1 Bft) W-SW 247 0 min 1 UV-I 181 W/m 11,3 km/h (2 Bft)
01.06.2010 08:50 11,1 C 94 % 1014,9 hPa 0,0 mm 1,6 km/h (1 Bft) W 270 10 min 2 UV-I 308 W/m 6,4 km/h (2 Bft)
01.06.2010 09:00 11,4 C 92 % 1014,9 hPa 0,0 mm 1,6 km/h (1 Bft) W 270 10 min 2 UV-I 693 W/m 8,0 km/h (2 Bft)
01.06.2010 09:10 11,8 C 91 % 1014,9 hPa 0,0 mm 1,6 km/h (1 Bft) W-SW 247 10 min 2 UV-I 501 W/m 6,4 km/h (2 Bft)
01.06.2010 09:20 11,8 C 90 % 1014,8 hPa 0,0 mm 1,6 km/h (1 Bft) W-SW 247 10 min 3 UV-I 543 W/m 4,8 km/h (1 Bft)
01.06.2010 09:30 12,6 C 89 % 1014,7 hPa 0,0 mm 1,1 km/h (1 Bft) W-SW 248 10 min 3 UV-I 558 W/m 6,4 km/h (2 Bft)
01.06.2010 09:40 12,6 C 87 % 1014,7 hPa 0,0 mm 1,4 km/h (1 Bft) S-SW 205 10 min 3 UV-I 414 W/m 9,7 km/h (2 Bft)
01.06.2010 09:50 12,6 C 85 % 1014,7 hPa 0,0 mm 0,7 km/h (0 Bft) W-SW 246 10 min 3 UV-I 385 W/m 4,8 km/h (1 Bft)
01.06.2010 10:00 13,3 C 85 % 1014,6 hPa 0,0 mm 2,9 km/h (1 Bft) S-SW 213 10 min 3 UV-I 509 W/m 9,7 km/h (2 Bft)
01.06.2010 10:10 13,4 C 83 % 1014,6 hPa 0,0 mm 3,0 km/h (1 Bft) S-SW 207 10 min 3 UV-I 488 W/m 9,7 km/h (2 Bft)
01.06.2010 10:20 14,1 C 83 % 1014,3 hPa 0,0 mm 1,8 km/h (1 Bft) W-NW 286 10 min 4 UV-I 729 W/m 8,0 km/h (2 Bft)
01.06.2010 10:30 14,3 C 80 % 1014,3 hPa 0,0 mm 4,0 km/h (1 Bft) W-SW 242 10 min 5 UV-I 752 W/m 11,3 km/h (2 Bft)
01.06.2010 10:40 14,6 C 77 % 1014,0 hPa 0,0 mm 4,6 km/h (1 Bft) W 266 10 min 5 UV-I 775 W/m 16,1 km/h (3 Bft)
01.06.2010 10:50 15,3 C 76 % 1013,9 hPa 0,0 mm 3,0 km/h (1 Bft) W 261 10 min 5 UV-I 741 W/m 11,3 km/h (2 Bft)
01.06.2010 11:00 15,4 C 74 % 1013,8 hPa 0,0 mm 4,9 km/h (1 Bft) W-SW 252 10 min 5 UV-I 808 W/m 11,3 km/h (2 Bft)
01.06.2010 11:10 16,0 C 74 % 1013,6 hPa 0,0 mm 2,9 km/h (1 Bft) S-SW 194 10 min 5 UV-I 747 W/m 8,0 km/h (2 Bft)
01.06.2010 11:20 16,1 C 72 % 1013,6 hPa 0,0 mm 4,1 km/h (1 Bft) W-NW 282 10 min 5 UV-I 765 W/m 16,1 km/h (3 Bft)
01.06.2010 11:30 16,3 C 71 % 1013,5 hPa 0,0 mm 4,3 km/h (1 Bft) W 276 10 min 6 UV-I 858 W/m 11,3 km/h (2 Bft)
01.06.2010 11:40 16,9 C 69 % 1013,3 hPa 0,0 mm 3,3 km/h (1 Bft) NW 316 10 min 6 UV-I 842 W/m 11,3 km/h (2 Bft)
01.06.2010 11:50 17,2 C 67 % 1013,4 hPa 0,0 mm 4,4 km/h (1 Bft) W 263 10 min 5 UV-I 762 W/m 12,9 km/h (3 Bft)
01.06.2010 12:00 17,6 C 66 % 1013,3 hPa 0,0 mm 4,2 km/h (1 Bft) W-SW 256 10 min 6 UV-I 773 W/m 12,9 km/h (3 Bft)
01.06.2010 12:10 17,7 C 62 % 1013,4 hPa 0,0 mm 6,9 km/h (2 Bft) W-SW 255 10 min 7 UV-I 942 W/m 14,5 km/h (3 Bft)
01.06.2010 12:20 18,0 C 62 % 1013,3 hPa 0,0 mm 6,4 km/h (2 Bft) W-SW 254 10 min 6 UV-I 804 W/m 17,7 km/h (3 Bft)
01.06.2010 12:30 18,2 C 61 % 1013,2 hPa 0,0 mm 4,8 km/h (1 Bft) NW 315 10 min 6 UV-I 755 W/m 12,9 km/h (3 Bft)
01.06.2010 12:40 18,1 C 60 % 1013,1 hPa 0,0 mm 6,3 km/h (2 Bft) W 269 10 min 6 UV-I 704 W/m 17,7 km/h (3 Bft)
01.06.2010 12:50 18,3 C 62 % 1013,0 hPa 0,0 mm 4,1 km/h (1 Bft) W-NW 302 10 min 5 UV-I 615 W/m 16,1 km/h (3 Bft)
01.06.2010 13:00 18,8 C 59 % 1012,9 hPa 0,0 mm 5,8 km/h (2 Bft) W 263 10 min 7 UV-I 854 W/m 14,5 km/h (3 Bft)
01.06.2010 13:10 18,9 C 60 % 1012,7 hPa 0,0 mm 5,6 km/h (1 Bft) W-NW 294 10 min 7 UV-I 969 W/m 20,9 km/h (4 Bft)
01.06.2010 13:20 19,2 C 57 % 1012,8 hPa 0,0 mm 5,7 km/h (1 Bft) N 360 10 min 6 UV-I 904 W/m 17,7 km/h (3 Bft)
01.06.2010 13:30 19,0 C 55 % 1012,6 hPa 0,0 mm 6,1 km/h (2 Bft) W-SW 254 10 min 5 UV-I 596 W/m 17,7 km/h (3 Bft)
01.06.2010 13:40 19,2 C 52 % 1012,6 hPa 0,0 mm 6,0 km/h (2 Bft) W-NW 300 10 min 5 UV-I 667 W/m 17,7 km/h (3 Bft)
01.06.2010 13:50 19,7 C 48 % 1012,6 hPa 0,0 mm 5,8 km/h (2 Bft) N 5 10 min 5 UV-I 670 W/m 14,5 km/h (3 Bft)
01.06.2010 14:00 19,5 C 48 % 1012,5 hPa 0,0 mm 3,9 km/h (1 Bft) N-NO 28 10 min 4 UV-I 507 W/m 14,5 km/h (3 Bft)
01.06.2010 14:10 18,9 C 47 % 1012,5 hPa 0,0 mm 5,2 km/h (1 Bft) W-NW 298 0 min 3 UV-I 325 W/m 20,9 km/h (4 Bft)
01.06.2010 14:20 19,2 C 46 % 1012,5 hPa 0,0 mm 4,2 km/h (1 Bft) W-NW 285 10 min 4 UV-I 496 W/m 14,5 km/h (3 Bft)
01.06.2010 14:30 19,4 C 47 % 1012,5 hPa 0,0 mm 6,4 km/h (2 Bft) W-NW 299 10 min 4 UV-I 607 W/m 19,3 km/h (3 Bft)
01.06.2010 14:40 19,8 C 47 % 1012,5 hPa 0,0 mm 4,0 km/h (1 Bft) NO 39 10 min 5 UV-I 606 W/m 11,3 km/h (2 Bft)
01.06.2010 14:50 19,9 C 48 % 1012,4 hPa 0,0 mm 3,5 km/h (1 Bft) N-NO 14 10 min 4 UV-I 492 W/m 14,5 km/h (3 Bft)
01.06.2010 15:00 19,6 C 46 % 1012,5 hPa 0,0 mm 4,7 km/h (1 Bft) W-NW 294 0 min 4 UV-I 443 W/m 12,9 km/h (3 Bft)
01.06.2010 15:10 19,4 C 48 % 1012,5 hPa 0,0 mm 5,9 km/h (2 Bft) NW 308 0 min 3 UV-I 337 W/m 16,1 km/h (3 Bft)
01.06.2010 15:20 19,1 C 47 % 1012,4 hPa 0,0 mm 4,2 km/h (1 Bft) W 261 0 min 2 UV-I 269 W/m 17,7 km/h (3 Bft)
01.06.2010 15:30 19,1 C 49 % 1012,3 hPa 0,0 mm 3,7 km/h (1 Bft) W-NW 288 0 min 2 UV-I 218 W/m 17,7 km/h (3 Bft)
01.06.2010 15:40 19,6 C 48 % 1012,3 hPa 0,0 mm 2,8 km/h (1 Bft) N-NW 345 0 min 3 UV-I 308 W/m 11,3 km/h (2 Bft)
01.06.2010 15:50 19,4 C 48 % 1012,2 hPa 0,0 mm 3,3 km/h (1 Bft) W 279 0 min 2 UV-I 300 W/m 14,5 km/h (3 Bft)
01.06.2010 16:00 20,8 C 49 % 1012,1 hPa 0,0 mm 2,2 km/h (1 Bft) W 276 10 min 5 UV-I 694 W/m 8,0 km/h (2 Bft)
01.06.2010 16:10 19,7 C 47 % 1012,1 hPa 0,0 mm 4,2 km/h (1 Bft) SW 236 0 min 2 UV-I 306 W/m 11,3 km/h (2 Bft)
01.06.2010 16:20 19,1 C 51 % 1012,2 hPa 0,0 mm 3,1 km/h (1 Bft) W-NW 302 0 min 1 UV-I 153 W/m 11,3 km/h (2 Bft)
01.06.2010 16:30 19,6 C 50 % 1012,2 hPa 0,0 mm 3,1 km/h (1 Bft) NW 317 0 min 2 UV-I 264 W/m 14,5 km/h (3 Bft)
01.06.2010 16:40 19,8 C 50 % 1012,1 hPa 0,0 mm 1,4 km/h (1 Bft) W-NW 295 0 min 2 UV-I 296 W/m 9,7 km/h (2 Bft)
01.06.2010 16:50 19,8 C 49 % 1012,0 hPa 0,0 mm 4,2 km/h (1 Bft) W-NW 300 10 min 2 UV-I 386 W/m 20,9 km/h (4 Bft)
01.06.2010 17:00 19,4 C 50 % 1012,1 hPa 0,0 mm 5,1 km/h (1 Bft) W-NW 300 0 min 2 UV-I 288 W/m 20,9 km/h (4 Bft)
01.06.2010 17:10 19,6 C 48 % 1012,1 hPa 0,0 mm 5,5 km/h (1 Bft) W-NW 290 10 min 2 UV-I 434 W/m 14,5 km/h (3 Bft)
01.06.2010 17:20 20,0 C 48 % 1011,9 hPa 0,0 mm 3,9 km/h (1 Bft) W-NW 286 10 min 2 UV-I 526 W/m 16,1 km/h (3 Bft)
01.06.2010 17:30 19,6 C 48 % 1011,9 hPa 0,0 mm 3,2 km/h (1 Bft) NW 308 0 min 1 UV-I 231 W/m 16,1 km/h (3 Bft)
01.06.2010 17:40 19,3 C 48 % 1011,9 hPa 0,0 mm 3,8 km/h (1 Bft) W-NW 296 0 min 1 UV-I 139 W/m 17,7 km/h (3 Bft)
01.06.2010 17:50 19,2 C 50 % 1011,9 hPa 0,0 mm 1,6 km/h (1 Bft) N-NW 328 0 min 1 UV-I 139 W/m 6,4 km/h (2 Bft)
01.06.2010 18:00 19,2 C 59 % 1011,9 hPa 0,0 mm 1,4 km/h (1 Bft) W-SW 237 0 min 1 UV-I 177 W/m 6,4 km/h (2 Bft)
01.06.2010 18:10 18,8 C 61 % 1011,9 hPa 0,0 mm 4,1 km/h (1 Bft) W 266 0 min 1 UV-I 213 W/m 16,1 km/h (3 Bft)
01.06.2010 18:20 18,6 C 63 % 1011,9 hPa 0,0 mm 4,5 km/h (1 Bft) N-NO 13 0 min 1 UV-I 163 W/m 17,7 km/h (3 Bft)
01.06.2010 18:30 18,8 C 54 % 1011,9 hPa 0,0 mm 2,2 km/h (1 Bft) NO 51 0 min 1 UV-I 153 W/m 11,3 km/h (2 Bft)
01.06.2010 18:40 18,9 C 50 % 1011,8 hPa 0,0 mm 3,7 km/h (1 Bft) SW 227 0 min 1 UV-I 159 W/m 14,5 km/h (3 Bft)
01.06.2010 18:50 18,8 C 50 % 1011,8 hPa 0,0 mm 3,5 km/h (1 Bft) N 355 0 min 1 UV-I 154 W/m 12,9 km/h (3 Bft)
01.06.2010 19:00 18,7 C 49 % 1011,8 hPa 0,0 mm 2,3 km/h (1 Bft) N-NO 18 0 min 1 UV-I 145 W/m 12,9 km/h (3 Bft)
01.06.2010 19:10 18,6 C 48 % 1011,9 hPa 0,0 mm 1,9 km/h (1 Bft) N 349 0 min 1 UV-I 137 W/m 9,7 km/h (2 Bft)
01.06.2010 19:20 18,5 C 48 % 1011,9 hPa 0,0 mm 2,1 km/h (1 Bft) NW 313 0 min 1 UV-I 121 W/m 11,3 km/h (2 Bft)
01.06.2010 19:30 18,4 C 50 % 1012,0 hPa 0,0 mm 1,3 km/h (1 Bft) N-NW 335 0 min 1 UV-I 107 W/m 9,7 km/h (2 Bft)
01.06.2010 19:40 18,2 C 47 % 1012,0 hPa 0,0 mm 2,7 km/h (1 Bft) W-NW 292 0 min 1 UV-I 96 W/m 11,3 km/h (2 Bft)
01.06.2010 19:50 18,1 C 48 % 1012,0 hPa 0,0 mm 1,1 km/h (1 Bft) N-NW 342 0 min 0 UV-I 86 W/m 6,4 km/h (2 Bft)
01.06.2010 20:00 17,9 C 48 % 1012,1 hPa 0,0 mm 0,6 km/h (0 Bft) N-NO 31 0 min 0 UV-I 75 W/m 4,8 km/h (1 Bft)
01.06.2010 20:10 17,8 C 48 % 1012,1 hPa 0,0 mm 0,6 km/h (0 Bft) W-NW 291 0 min 0 UV-I 66 W/m 4,8 km/h (1 Bft)
01.06.2010 20:20 17,7 C 46 % 1012,1 hPa 0,0 mm 2,6 km/h (1 Bft) N-NW 332 0 min 0 UV-I 58 W/m 9,7 km/h (2 Bft)
01.06.2010 20:30 17,5 C 48 % 1012,2 hPa 0,0 mm 1,2 km/h (1 Bft) N 10 0 min 0 UV-I 49 W/m 6,4 km/h (2 Bft)
01.06.2010 20:40 17,3 C 47 % 1012,4 hPa 0,0 mm 0,5 km/h (0 Bft) N-NW 327 0 min 0 UV-I 38 W/m 4,8 km/h (1 Bft)
01.06.2010 20:50 17,0 C 50 % 1012,4 hPa 0,0 mm 0,2 km/h (0 Bft) N-NW 340 0 min 0 UV-I 29 W/m 3,2 km/h (1 Bft)
01.06.2010 21:00 16,8 C 51 % 1012,4 hPa 0,0 mm 1,4 km/h (1 Bft) N 360 0 min 0 UV-I 22 W/m 6,4 km/h (2 Bft)
01.06.2010 21:10 16,6 C 51 % 1012,5 hPa 0,0 mm 0,7 km/h (0 Bft) N 355 0 min 0 UV-I 16 W/m 6,4 km/h (2 Bft)
01.06.2010 21:20 16,4 C 54 % 1012,5 hPa 0,0 mm 0,7 km/h (0 Bft) N-NO 21 10 min 0 UV-I 9 W/m 6,4 km/h (2 Bft)
01.06.2010 21:30 16,3 C 56 % 1012,7 hPa 0,0 mm 0,9 km/h (0 Bft) N 360 0 min 0 UV-I 0 W/m 8,0 km/h (2 Bft)
01.06.2010 21:40 16,2 C 58 % 1012,7 hPa 0,0 mm 0,2 km/h (0 Bft) N 360 0 min 0 UV-I 0 W/m 4,8 km/h (1 Bft)
01.06.2010 21:50 16,1 C 59 % 1012,8 hPa 0,0 mm 0,0 km/h (0 Bft) N 5 0 min 0 UV-I 0 W/m 1,6 km/h (1 Bft)
01.06.2010 22:00 15,8 C 60 % 1012,8 hPa 0,0 mm 0,1 km/h (0 Bft) N 360 0 min 0 UV-I 0 W/m 3,2 km/h (1 Bft)
01.06.2010 22:10 15,7 C 61 % 1012,9 hPa 0,0 mm 0,0 km/h (0 Bft) N 5 0 min 0 UV-I 0 W/m 0,0 km/h (0 Bft)
01.06.2010 22:20 15,6 C 59 % 1013,0 hPa 0,0 mm 0,1 km/h (0 Bft) N 360 0 min 0 UV-I 0 W/m 1,6 km/h (1 Bft)
01.06.2010 22:30 15,6 C 60 % 1012,9 hPa 0,0 mm 0,1 km/h (0 Bft) N 5 0 min 0 UV-I 0 W/m 1,6 km/h (1 Bft)
01.06.2010 22:40 15,5 C 59 % 1012,9 hPa 0,0 mm 0,0 km/h (0 Bft) N 360 0 min 0 UV-I 0 W/m 1,6 km/h (1 Bft)
01.06.2010 22:50 15,5 C 60 % 1013,0 hPa 0,0 mm 0,1 km/h (0 Bft) N 360 0 min 0 UV-I 0 W/m 1,6 km/h (1 Bft)
01.06.2010 23:00 15,4 C 62 % 1013,0 hPa 0,0 mm 0,2 km/h (0 Bft) N 10 0 min 0 UV-I 0 W/m 3,2 km/h (1 Bft)
01.06.2010 23:10 15,4 C 64 % 1013,0 hPa 0,0 mm 0,6 km/h (0 Bft) N-NO 30 0 min 0 UV-I 0 W/m 4,8 km/h (1 Bft)
01.06.2010 23:20 15,3 C 65 % 1013,0 hPa 0,0 mm 0,4 km/h (0 Bft) N-NW 335 0 min 0 UV-I 0 W/m 6,4 km/h (2 Bft)
01.06.2010 23:30 15,2 C 65 % 1013,1 hPa 0,0 mm 0,3 km/h (0 Bft) N-NW 342 0 min 0 UV-I 0 W/m 6,4 km/h (2 Bft)
01.06.2010 23:40 15,0 C 66 % 1013,0 hPa 0,0 mm 0,6 km/h (0 Bft) N-NW 342 0 min 0 UV-I 0 W/m 6,4 km/h (2 Bft)
01.06.2010 23:50 15,1 C 66 % 1013,0 hPa 0,0 mm 3,7 km/h (1 Bft) N-NO 18 0 min 0 UV-I 0 W/m 12,9 km/h (3 Bft)
_ Min-Zeit 06:20 14:20 18:40 - 00:00 - - - - - 00:20
Minimum _ 10,3 C 46 % 1011,8 hPa - 0,0 km/h (0 Bft) - - - - - 0,0 km/h (0 Bft)
_ Max-Zeit 16:00 02:50 07:30 00:00 12:10 - - 08:50 12:10 13:10 13:10
Maximum _ 20,8 C 95 % 1015,3 hPa 0,0 mm 6,9 km/h
W-SW (2 Bft)
- - 10 min 7 UV-I 969 W/m 20,9 km/h
W-NW (4 Bft)
Durchschnitt _ 14,8 C 72 % 1013,6 hPa #0,0 mm 2,5 km/h (1 Bft) W - #6:50 h 3 UV-I 353 W/m 9,7 km/h (2 Bft)